createdAt,value
2023-04-13T00:01:28.923Z,98777.22
2023-04-13T00:03:58.169Z,98785.22
2023-04-13T00:06:41.367Z,98781.94
2023-04-13T00:09:18.765Z,98781.31
2023-04-13T00:11:49.355Z,98779.06
2023-04-13T00:14:18.715Z,98779.69
2023-04-13T00:16:48.668Z,98776.78
2023-04-13T00:19:17.797Z,98768.59
2023-04-13T00:21:47.321Z,98775.75
2023-04-13T00:24:15.100Z,98775.56
2023-04-13T00:26:42.846Z,98771.25
2023-04-13T00:29:10.480Z,98764.31
2023-04-13T00:31:40.306Z,98760.59
2023-04-13T00:34:09.009Z,98758.75
2023-04-13T00:36:37.947Z,98770.00
2023-04-13T00:39:06.947Z,98748.28
2023-04-13T00:41:43.531Z,98749.13
2023-04-13T00:44:15.985Z,98747.91
2023-04-13T00:46:46.493Z,98748.09
2023-04-13T00:49:16.134Z,98743.16
2023-04-13T00:51:45.789Z,98746.66
2023-04-13T00:54:18.452Z,98740.50
2023-04-13T00:56:46.557Z,98755.47
2023-04-13T00:59:15.286Z,98745.22
2023-04-13T01:01:50.585Z,98752.41
2023-04-13T01:04:27.377Z,98754.03
2023-04-13T01:07:06.624Z,98765.91
2023-04-13T01:09:42.817Z,98763.00
2023-04-13T01:12:21.290Z,98764.25
2023-04-13T01:14:58.795Z,98763.22
2023-04-13T01:17:31.229Z,98760.75
2023-04-13T01:20:03.185Z,98775.06
2023-04-13T01:22:36.166Z,98765.41
2023-04-13T01:25:27.684Z,98767.69
2023-04-13T01:28:05.664Z,98765.44
2023-04-13T01:30:35.816Z,98767.50
2023-04-13T01:33:06.538Z,98775.91
2023-04-13T01:35:48.119Z,98775.25
2023-04-13T01:38:16.224Z,98778.16
2023-04-13T01:40:46.096Z,98780.41
2023-04-13T01:43:16.057Z,98787.56
2023-04-13T01:45:52.626Z,98787.13
2023-04-13T01:48:26.098Z,98785.94
2023-04-13T01:50:59.337Z,98785.31
2023-04-13T01:53:32.758Z,98786.34
2023-04-13T01:56:01.248Z,98789.03
2023-04-13T01:58:37.865Z,98788.78
2023-04-13T02:01:10.021Z,98778.56
2023-04-13T02:03:38.895Z,98779.78
2023-04-13T02:06:07.355Z,98786.94
2023-04-13T02:08:37.047Z,98785.75
2023-04-13T02:11:05.237Z,98783.50
2023-04-13T02:13:36.883Z,98769.38
2023-04-13T02:16:11.521Z,98778.38
2023-04-13T02:18:39.238Z,98775.91
2023-04-13T02:21:09.607Z,98772.22
2023-04-13T02:23:39.498Z,98773.50
2023-04-13T02:26:08.511Z,98771.22
2023-04-13T02:28:37.693Z,98782.50
2023-04-13T02:31:05.969Z,98779.84
2023-04-13T02:33:34.231Z,98781.72
2023-04-13T02:36:03.944Z,98789.91
2023-04-13T02:38:34.123Z,98785.38
2023-04-13T02:41:03.459Z,98788.88
2023-04-13T02:43:31.192Z,98788.28
2023-04-13T02:46:00.458Z,98790.75
2023-04-13T02:48:28.199Z,98785.81
2023-04-13T02:50:56.274Z,98790.75
2023-04-13T02:53:25.147Z,98783.19
2023-04-13T02:55:53.715Z,98776.81
2023-04-13T02:58:23.569Z,98783.97
2023-04-13T03:00:51.376Z,98773.72
2023-04-13T03:03:20.573Z,98775.56
2023-04-13T03:05:53.976Z,98774.56
2023-04-13T03:08:21.657Z,98763.88
2023-04-13T03:10:49.980Z,98762.44
2023-04-13T03:13:17.818Z,98760.38
2023-04-13T03:15:46.634Z,98760.78
2023-04-13T03:18:14.743Z,98765.25
2023-04-13T03:20:44.182Z,98757.66
2023-04-13T03:23:12.328Z,98758.69
2023-04-13T03:25:40.795Z,98766.69
2023-04-13T03:28:08.535Z,98750.91
2023-04-13T03:30:38.852Z,98741.47
2023-04-13T03:33:06.571Z,98742.28
2023-04-13T03:35:34.260Z,98744.16
2023-04-13T03:38:04.365Z,98746.41
2023-04-13T03:40:32.095Z,98743.13
2023-04-13T03:43:00.006Z,98734.91
2023-04-13T03:45:29.091Z,98742.88
2023-04-13T03:47:56.830Z,98744.69
2023-04-13T03:50:24.610Z,98748.41
2023-04-13T03:52:52.236Z,98736.91
2023-04-13T03:55:21.492Z,98744.25
2023-04-13T03:57:49.373Z,98740.56
2023-04-13T04:00:18.236Z,98733.38
2023-04-13T04:02:46.217Z,98726.84
2023-04-13T04:05:14.041Z,98733.59
2023-04-13T04:07:41.741Z,98728.69
2023-04-13T04:10:10.550Z,98737.91
2023-04-13T04:12:39.525Z,98728.25
2023-04-13T04:15:08.587Z,98736.03
2023-04-13T04:17:40.026Z,98728.03
2023-04-13T04:20:14.612Z,98736.66
2023-04-13T04:22:44.958Z,98745.25
2023-04-13T04:25:12.576Z,98734.19
2023-04-13T04:27:46.854Z,98745.72
2023-04-13T04:30:22.191Z,98745.50
2023-04-13T04:32:54.630Z,98740.78
2023-04-13T04:35:28.587Z,98756.38
2023-04-13T04:37:58.139Z,98752.22
2023-04-13T04:40:28.865Z,98755.09
2023-04-13T04:42:59.007Z,98760.63
2023-04-13T04:45:28.116Z,98763.09
2023-04-13T04:47:57.803Z,98767.19
2023-04-13T04:50:25.932Z,98767.41
2023-04-13T04:52:53.750Z,98772.75
2023-04-13T04:55:21.580Z,98780.31
2023-04-13T04:57:53.101Z,98783.44
2023-04-13T05:00:22.573Z,98789.53
2023-04-13T05:02:51.122Z,98795.50
2023-04-13T05:05:19.394Z,98792.84
2023-04-13T05:07:47.017Z,98801.03
2023-04-13T05:10:14.726Z,98802.84
2023-04-13T05:12:42.733Z,98800.19
2023-04-13T05:15:11.460Z,98805.75
2023-04-13T05:17:46.845Z,98798.94
2023-04-13T05:20:15.104Z,98796.13
2023-04-13T05:22:43.620Z,98800.63
2023-04-13T05:25:11.788Z,98797.91
2023-04-13T05:27:39.544Z,98795.66
2023-04-13T05:30:09.532Z,98797.09
2023-04-13T05:32:37.513Z,98796.16
2023-04-13T05:35:10.502Z,98796.00
2023-04-13T05:37:39.839Z,98797.25
2023-04-13T05:40:15.087Z,98796.44
2023-04-13T05:42:43.806Z,98800.06
2023-04-13T05:45:13.296Z,98794.22
2023-04-13T05:47:41.368Z,98793.75
2023-04-13T05:50:11.524Z,98794.56
2023-04-13T05:52:39.272Z,98811.63
2023-04-13T05:55:07.958Z,98811.41
2023-04-13T05:57:37.110Z,98822.34
2023-04-13T06:00:10.590Z,98822.31
2023-04-13T06:02:40.176Z,98823.91
2023-04-13T06:05:11.903Z,98821.66
2023-04-13T06:07:39.750Z,98832.56
2023-04-13T06:10:08.976Z,98840.75
2023-04-13T06:12:36.808Z,98840.34
2023-04-13T06:15:05.493Z,98840.16
2023-04-13T06:17:33.193Z,98842.81
2023-04-13T06:20:00.927Z,98845.50
2023-04-13T06:22:30.933Z,98854.56
2023-04-13T06:24:58.599Z,98862.28
2023-04-13T06:27:27.164Z,98856.78
2023-04-13T06:29:59.640Z,98864.97
2023-04-13T06:32:28.877Z,98870.72
2023-04-13T06:34:56.683Z,98869.00
2023-04-13T06:37:24.717Z,98880.53
2023-04-13T06:39:53.879Z,98889.34
2023-04-13T06:42:21.832Z,98875.16
2023-04-13T06:44:49.659Z,98888.25
2023-04-13T06:47:18.799Z,98883.78
2023-04-13T06:49:46.665Z,98877.50
2023-04-13T06:52:14.645Z,98882.66
2023-04-13T06:54:42.323Z,98872.91
2023-04-13T06:57:13.291Z,98874.06
2023-04-13T06:59:40.884Z,98877.25
2023-04-13T07:02:09.629Z,98880.41
2023-04-13T07:04:40.315Z,98892.00
2023-04-13T07:07:08.137Z,98881.75
2023-04-13T07:09:35.882Z,98883.38
2023-04-13T07:12:05.192Z,98884.41
2023-04-13T07:14:36.044Z,98889.00
2023-04-13T07:17:05.007Z,98893.75
2023-04-13T07:19:33.749Z,98892.00
2023-04-13T07:22:04.506Z,98884.25
2023-04-13T07:24:35.854Z,98891.38
2023-04-13T07:27:04.593Z,98900.75
2023-04-13T07:29:32.387Z,98903.94
2023-04-13T07:32:02.587Z,98904.63
2023-04-13T07:36:58.673Z,98931.94
2023-04-13T07:39:26.422Z,98922.28
2023-04-13T07:41:54.029Z,98921.88
2023-04-13T07:44:21.626Z,98921.25
2023-04-13T07:46:49.473Z,98926.81
2023-04-13T07:49:18.763Z,98916.78
2023-04-13T07:51:46.454Z,98928.44
2023-04-13T07:54:16.501Z,98927.41
2023-04-13T07:56:44.491Z,98925.09
2023-04-13T07:59:13.973Z,98924.28
2023-04-13T08:01:41.985Z,98930.59
2023-04-13T08:04:09.889Z,98927.41
2023-04-13T08:06:39.267Z,98934.91
2023-04-13T08:09:06.976Z,98938.47
2023-04-13T08:11:34.600Z,98941.22
2023-04-13T08:14:02.263Z,98942.94
2023-04-13T08:16:33.467Z,98941.53
2023-04-13T08:19:02.265Z,98944.50
2023-04-13T08:21:32.831Z,98948.41
2023-04-13T08:24:01.774Z,98946.31
2023-04-13T08:26:29.482Z,98949.34
2023-04-13T08:28:57.512Z,98949.34
2023-04-13T08:31:25.436Z,98947.94
2023-04-13T08:33:53.159Z,98953.44
2023-04-13T08:36:21.003Z,98963.47
2023-04-13T08:38:48.684Z,98962.69
2023-04-13T08:41:18.616Z,98965.97
2023-04-13T08:43:47.793Z,98970.25
2023-04-13T08:46:19.466Z,98966.72
2023-04-13T08:48:54.017Z,98963.84
2023-04-13T08:51:23.810Z,98972.81
2023-04-13T08:53:55.639Z,98966.81
2023-04-13T08:56:37.628Z,98968.47
2023-04-13T08:59:15.167Z,98969.22
2023-04-13T09:01:49.740Z,98969.38
2023-04-13T09:04:22.934Z,98964.94
2023-04-13T09:06:54.181Z,98965.38
2023-04-13T09:09:23.633Z,98969.84
2023-04-13T09:11:54.607Z,98969.81
2023-04-13T09:14:22.955Z,98973.22
2023-04-13T09:16:50.944Z,98976.94
2023-04-13T09:19:18.907Z,98980.16
2023-04-13T09:21:50.697Z,98972.81
2023-04-13T09:24:18.511Z,98976.56
2023-04-13T09:26:48.719Z,98988.59
2023-04-13T09:29:19.881Z,98978.91
2023-04-13T09:31:48.446Z,98984.66
2023-04-13T09:34:26.649Z,98983.69
2023-04-13T09:36:56.765Z,98989.91
2023-04-13T09:39:28.306Z,98994.59
2023-04-13T09:41:58.036Z,98991.91
2023-04-13T09:44:28.623Z,98999.72
2023-04-13T09:47:02.552Z,99002.78
2023-04-13T09:49:38.643Z,99014.38
2023-04-13T09:52:07.425Z,99013.16
2023-04-13T09:54:35.514Z,99014.06
2023-04-13T09:57:05.932Z,99013.16
2023-04-13T09:59:39.633Z,99013.25
2023-04-13T10:02:09.499Z,99014.75
2023-04-13T10:04:37.479Z,99008.25
2023-04-13T10:07:10.761Z,99007.34
2023-04-13T10:09:38.664Z,99015.06
2023-04-13T10:12:11.435Z,99013.72
2023-04-13T10:14:44.215Z,99020.38
2023-04-13T10:17:37.371Z,99020.63
2023-04-13T10:20:10.954Z,99027.53
2023-04-13T10:22:40.155Z,99030.59
2023-04-13T10:25:31.391Z,99021.66
2023-04-13T10:28:01.995Z,99006.84
2023-04-13T10:30:31.570Z,99006.03
2023-04-13T10:33:05.576Z,99008.84
2023-04-13T10:35:37.409Z,99001.81
2023-04-13T10:38:06.053Z,99007.94
2023-04-13T10:40:44.683Z,99011.78
2023-04-13T10:43:13.376Z,99005.13
2023-04-13T10:45:42.313Z,99007.88
2023-04-13T10:48:21.173Z,99011.53
2023-04-13T10:50:58.764Z,99015.78
2023-04-13T10:53:30.284Z,99012.59
2023-04-13T10:55:58.631Z,99014.22
2023-04-13T10:58:32.770Z,99002.78
2023-04-13T11:01:03.561Z,99001.59
2023-04-13T11:03:31.341Z,98997.06
2023-04-13T11:06:04.539Z,98997.84
2023-04-13T11:08:32.815Z,98993.66
2023-04-13T11:11:00.530Z,99003.25
2023-04-13T11:13:29.490Z,99008.84
2023-04-13T11:16:07.118Z,99010.97
2023-04-13T11:18:36.224Z,99009.59
2023-04-13T11:21:06.852Z,99003.53
2023-04-13T11:23:38.291Z,98995.63
2023-04-13T11:26:23.080Z,98994.78
2023-04-13T11:28:51.319Z,98996.19
2023-04-13T11:31:20.222Z,98988.00
2023-04-13T11:33:51.416Z,98988.69
2023-04-13T11:36:23.622Z,98986.63
2023-04-13T11:38:53.591Z,98988.00
2023-04-13T11:41:21.624Z,98989.97
2023-04-13T11:43:49.407Z,98983.28
2023-04-13T11:46:27.823Z,98988.75
2023-04-13T11:48:56.295Z,98979.19
2023-04-13T11:51:25.532Z,98991.44
2023-04-13T11:53:54.933Z,98987.31
2023-04-13T11:56:23.840Z,98975.41
2023-04-13T11:58:55.324Z,98973.75
2023-04-13T12:01:33.892Z,98979.59
2023-04-13T12:04:15.004Z,98973.47
2023-04-13T12:06:46.189Z,98990.22
2023-04-13T12:09:17.874Z,98985.81
2023-04-13T12:11:53.939Z,98978.94
2023-04-13T12:14:52.130Z,98982.88
2023-04-13T12:17:38.113Z,98986.88
2023-04-13T12:20:10.456Z,98970.13
2023-04-13T12:22:51.592Z,98964.19
2023-04-13T12:25:25.876Z,98967.91
2023-04-13T12:27:54.412Z,98969.72
2023-04-13T12:30:23.934Z,98958.44
2023-04-13T12:32:55.117Z,98970.41
2023-04-13T12:35:24.292Z,98967.28
2023-04-13T12:37:52.517Z,98970.13
2023-04-13T12:40:21.672Z,98965.66
2023-04-13T12:42:50.069Z,98967.41
2023-04-13T12:45:18.103Z,98961.63
2023-04-13T12:47:45.775Z,98955.69
2023-04-13T12:50:15.356Z,98962.13
2023-04-13T12:52:44.558Z,98956.53
2023-04-13T12:55:12.366Z,98960.91
2023-04-13T12:57:41.594Z,98963.59
2023-04-13T13:00:12.067Z,98961.13
2023-04-13T13:02:39.956Z,98954.69
2023-04-13T13:05:09.489Z,98956.97
2023-04-13T13:07:39.990Z,98970.47
2023-04-13T13:10:25.814Z,98976.84
2023-04-13T13:12:56.816Z,99000.31
2023-04-13T13:15:25.777Z,99012.34
2023-04-13T13:17:53.937Z,99025.81
2023-04-13T13:20:21.737Z,99021.63
2023-04-13T13:22:51.321Z,99022.47
2023-04-13T13:25:19.343Z,99030.03
2023-04-13T13:30:18.620Z,99036.44
2023-04-13T13:32:46.860Z,99038.88
2023-04-13T13:35:18.061Z,99042.72
2023-04-13T13:37:47.723Z,99040.44
2023-04-13T13:40:16.973Z,99050.47
2023-04-13T13:42:52.078Z,99052.41
2023-04-13T13:45:21.951Z,99065.66
2023-04-13T13:47:57.386Z,99065.91
2023-04-13T13:50:25.426Z,99070.31
2023-04-13T13:53:02.515Z,99073.22
2023-04-13T13:55:33.361Z,99076.44
2023-04-13T13:58:01.375Z,99074.34
2023-04-13T14:00:32.175Z,99075.13
2023-04-13T14:03:01.487Z,99074.94
2023-04-13T14:05:29.313Z,99077.69
2023-04-13T14:07:57.226Z,99084.69
2023-04-13T14:10:25.711Z,99081.47
2023-04-13T14:12:55.926Z,99079.81
2023-04-13T14:15:26.301Z,99072.44
2023-04-13T14:18:08.999Z,99070.00
2023-04-13T14:20:39.456Z,99076.06
2023-04-13T14:23:09.081Z,99078.84
2023-04-13T14:25:38.004Z,99087.13
2023-04-13T14:28:09.452Z,99080.50
2023-04-13T14:30:37.375Z,99085.94
2023-04-13T14:33:09.397Z,99084.44
2023-04-13T14:35:39.820Z,99088.09
2023-04-13T14:38:08.336Z,99089.88
2023-04-13T14:40:36.484Z,99086.38
2023-04-13T14:43:06.761Z,99094.03
2023-04-13T14:45:35.836Z,99085.28
2023-04-13T14:48:03.622Z,99093.56
2023-04-13T14:50:31.465Z,99092.63
2023-04-13T14:52:59.265Z,99086.50
2023-04-13T14:55:27.400Z,99094.56
2023-04-13T14:57:57.479Z,99094.69
2023-04-13T15:00:38.536Z,99087.91
2023-04-13T15:03:25.895Z,99094.53
2023-04-13T15:06:02.466Z,99094.13
2023-04-13T15:08:31.776Z,99102.06
2023-04-13T15:10:59.623Z,99094.94
2023-04-13T15:13:27.324Z,99102.41
2023-04-13T15:15:56.841Z,99101.19
2023-04-13T15:18:25.987Z,99110.38
2023-04-13T15:20:53.766Z,99104.28
2023-04-13T15:23:21.554Z,99117.66
2023-04-13T15:25:49.138Z,99118.06
2023-04-13T15:28:18.514Z,99117.50
2023-04-13T15:30:46.327Z,99124.00
2023-04-13T15:33:15.515Z,99123.50
2023-04-13T15:35:44.746Z,99119.41
2023-04-13T15:38:12.761Z,99128.31
2023-04-13T15:40:40.693Z,99124.03
2023-04-13T15:43:08.724Z,99121.81
2023-04-13T15:45:36.581Z,99114.94
2023-04-13T15:48:04.967Z,99126.88
2023-04-13T15:50:32.664Z,99118.25
2023-04-13T15:53:01.660Z,99119.19
2023-04-13T15:55:29.653Z,99110.25
2023-04-13T15:57:57.463Z,99119.94
2023-04-13T16:00:26.110Z,99116.78
2023-04-13T16:03:03.409Z,99117.09
2023-04-13T16:05:31.843Z,99123.72
2023-04-13T16:08:01.032Z,99129.09
2023-04-13T16:10:28.699Z,99132.38
2023-04-13T16:12:56.906Z,99136.94
2023-04-13T16:15:24.636Z,99130.75
2023-04-13T16:17:53.421Z,99154.38
2023-04-13T16:20:22.164Z,99158.19
2023-04-13T16:22:54.667Z,99175.09
2023-04-13T16:25:23.919Z,99181.75
2023-04-13T16:27:56.134Z,99180.69
2023-04-13T16:30:24.017Z,99175.81
2023-04-13T16:32:51.862Z,99187.56
2023-04-13T16:35:19.690Z,99177.69
2023-04-13T16:37:47.474Z,99187.84
2023-04-13T16:40:19.368Z,99185.34
2023-04-13T16:42:49.405Z,99190.31
2023-04-13T16:45:17.483Z,99197.09
2023-04-13T16:47:45.451Z,99202.88
2023-04-13T16:50:13.401Z,99201.03
2023-04-13T16:52:41.585Z,99190.03
2023-04-13T16:55:39.069Z,99198.63
2023-04-13T16:58:17.312Z,99196.28
2023-04-13T17:00:45.446Z,99198.31
2023-04-13T17:03:15.988Z,99201.16
2023-04-13T17:05:43.681Z,99200.72
2023-04-13T17:08:11.408Z,99202.66
2023-04-13T17:10:39.278Z,99201.66
2023-04-13T17:13:06.910Z,99215.56
2023-04-13T17:15:35.907Z,99214.03
2023-04-13T17:18:03.639Z,99215.75
2023-04-13T17:20:31.528Z,99209.34
2023-04-13T17:22:59.276Z,99217.75
2023-04-13T17:25:27.072Z,99216.13
2023-04-13T17:27:54.856Z,99216.63
2023-04-13T17:30:22.545Z,99222.94
2023-04-13T17:32:51.649Z,99226.56
2023-04-13T17:35:20.180Z,99234.91
2023-04-13T17:37:47.830Z,99247.88
2023-04-13T17:40:15.505Z,99255.94
2023-04-13T17:42:43.095Z,99257.34
2023-04-13T17:45:11.613Z,99262.72
2023-04-13T17:47:39.229Z,99259.00
2023-04-13T17:50:09.487Z,99265.38
2023-04-13T17:52:37.421Z,99258.44
2023-04-13T17:55:06.005Z,99268.97
2023-04-13T17:57:33.904Z,99265.25
2023-04-13T18:00:01.975Z,99269.81
2023-04-13T18:02:29.774Z,99269.19
2023-04-13T18:04:57.568Z,99265.69
2023-04-13T18:07:26.755Z,99272.50
2023-04-13T18:09:54.484Z,99268.00
2023-04-13T18:12:22.256Z,99270.03
2023-04-13T18:14:49.847Z,99281.75
2023-04-13T18:17:17.517Z,99285.25
2023-04-13T18:19:49.004Z,99293.91
2023-04-13T18:22:17.340Z,99292.88
2023-04-13T18:24:46.530Z,99274.94
2023-04-13T18:27:14.372Z,99282.78
2023-04-13T18:29:44.743Z,99280.09
2023-04-13T18:32:12.465Z,99281.50
2023-04-13T18:34:42.369Z,99286.66
2023-04-13T18:37:11.343Z,99289.75
2023-04-13T18:39:39.495Z,99299.13
2023-04-13T18:42:08.735Z,99300.53
2023-04-13T18:44:36.570Z,99311.25
2023-04-13T18:47:04.352Z,99318.03
2023-04-13T18:49:32.380Z,99324.84
2023-04-13T18:52:00.309Z,99334.09
2023-04-13T18:54:29.508Z,99333.31
2023-04-13T18:56:58.176Z,99334.53
2023-04-13T18:59:28.924Z,99341.97
2023-04-13T19:01:56.740Z,99348.13
2023-04-13T19:04:24.592Z,99345.88
2023-04-13T19:06:52.394Z,99348.34
2023-04-13T19:09:20.081Z,99354.28
2023-04-13T19:11:51.597Z,99355.53
2023-04-13T19:14:19.152Z,99341.72
2023-04-13T19:16:52.751Z,99344.81
2023-04-13T19:19:20.458Z,99348.13
2023-04-13T19:21:48.105Z,99347.28
2023-04-13T19:24:16.215Z,99345.66
2023-04-13T19:26:44.187Z,99349.56
2023-04-13T19:29:13.155Z,99348.56
2023-04-13T19:31:58.823Z,99352.22
2023-04-13T19:34:31.509Z,99352.19
2023-04-13T19:36:59.465Z,99346.63
2023-04-13T19:39:27.432Z,99348.69
2023-04-13T19:41:55.613Z,99350.91
2023-04-13T19:44:23.252Z,99338.56
2023-04-13T19:46:52.268Z,99332.00
2023-04-13T19:49:20.553Z,99341.25
2023-04-13T19:51:51.163Z,99349.50
2023-04-13T19:54:18.679Z,99354.41
2023-04-13T19:56:47.460Z,99351.22
2023-04-13T19:59:15.193Z,99355.28
2023-04-13T20:01:45.756Z,99347.66
2023-04-13T20:04:18.009Z,99352.81
2023-04-13T20:06:46.087Z,99352.97
2023-04-13T20:09:15.218Z,99363.66
2023-04-13T20:11:42.887Z,99361.66
2023-04-13T20:14:11.716Z,99356.53
2023-04-13T20:16:39.688Z,99355.75
2023-04-13T20:19:09.608Z,99348.19
2023-04-13T20:21:42.227Z,99344.28
2023-04-13T20:24:10.146Z,99343.91
2023-04-13T20:26:38.882Z,99343.72
2023-04-13T20:29:07.229Z,99352.63
2023-04-13T20:31:35.928Z,99346.66
2023-04-13T20:34:04.250Z,99351.81
2023-04-13T20:36:32.375Z,99357.19
2023-04-13T20:39:01.523Z,99359.09
2023-04-13T20:41:32.467Z,99357.47
2023-04-13T20:44:01.122Z,99361.22
2023-04-13T20:46:34.235Z,99368.78
2023-04-13T20:49:04.277Z,99364.84
2023-04-13T20:51:32.956Z,99366.81
2023-04-13T20:54:05.303Z,99366.16
2023-04-13T20:56:39.787Z,99362.41
2023-04-13T20:59:07.922Z,99362.03
2023-04-13T21:01:36.042Z,99368.00
2023-04-13T21:04:04.146Z,99365.53
2023-04-13T21:06:33.699Z,99372.75
2023-04-13T21:09:05.027Z,99378.69
2023-04-13T21:11:32.916Z,99371.94
2023-04-13T21:14:00.758Z,99371.91
2023-04-13T21:16:31.665Z,99368.16
2023-04-13T21:18:59.380Z,99369.28
2023-04-13T21:21:28.215Z,99362.47
2023-04-13T21:23:56.154Z,99358.78
2023-04-13T21:26:25.102Z,99366.25
2023-04-13T21:28:52.865Z,99367.97
2023-04-13T21:31:20.860Z,99367.75
2023-04-13T21:33:49.175Z,99376.34
2023-04-13T21:38:47.423Z,99359.50
2023-04-13T21:41:16.182Z,99369.19
2023-04-13T21:43:46.083Z,99372.91
2023-04-13T21:46:16.796Z,99371.03
2023-04-13T21:48:44.956Z,99377.50
2023-04-13T21:51:12.668Z,99381.75
2023-04-13T21:53:41.517Z,99382.56
2023-04-13T21:56:09.271Z,99384.16
2023-04-13T21:58:42.132Z,99379.78
2023-04-13T22:01:12.857Z,99365.41
2023-04-13T22:03:43.211Z,99374.78
2023-04-13T22:06:12.390Z,99370.28
2023-04-13T22:08:40.547Z,99377.28
2023-04-13T22:11:08.335Z,99361.50
2023-04-13T22:13:37.247Z,99365.59
2023-04-13T22:16:05.046Z,99363.38
2023-04-13T22:18:36.363Z,99352.31
2023-04-13T22:21:04.505Z,99360.53
2023-04-13T22:23:32.127Z,99357.03
2023-04-13T22:26:01.444Z,99354.72
2023-04-13T22:28:32.106Z,99357.78
2023-04-13T22:31:07.377Z,99349.78
2023-04-13T22:33:37.826Z,99348.97
2023-04-13T22:36:07.089Z,99352.97
2023-04-13T22:38:34.705Z,99355.94
2023-04-13T22:41:07.688Z,99365.94
2023-04-13T22:43:35.522Z,99380.38
2023-04-13T22:46:03.459Z,99387.81
2023-04-13T22:48:31.275Z,99389.72
2023-04-13T22:51:01.073Z,99388.19
2023-04-13T22:53:29.147Z,99391.06
2023-04-13T22:55:57.974Z,99391.16
2023-04-13T22:58:25.697Z,99395.25
2023-04-13T23:00:53.257Z,99391.47
2023-04-13T23:03:21.245Z,99402.34
2023-04-13T23:05:49.213Z,99404.78
2023-04-13T23:08:18.219Z,99401.47
2023-04-13T23:10:45.829Z,99402.28
2023-04-13T23:13:13.559Z,99402.69
2023-04-13T23:15:41.209Z,99404.06
2023-04-13T23:18:08.979Z,99407.34
2023-04-13T23:20:36.708Z,99422.56
2023-04-13T23:23:04.352Z,99429.25
2023-04-13T23:25:33.303Z,99432.00
2023-04-13T23:28:01.093Z,99425.94
2023-04-13T23:30:28.688Z,99426.06
2023-04-13T23:32:56.482Z,99434.38
2023-04-13T23:35:24.145Z,99433.47
2023-04-13T23:37:51.847Z,99422.69
2023-04-13T23:40:19.498Z,99423.81
2023-04-13T23:42:48.555Z,99429.97
2023-04-13T23:45:16.445Z,99428.13
2023-04-13T23:47:44.223Z,99424.59
2023-04-13T23:50:12.282Z,99424.03
2023-04-13T23:52:39.886Z,99414.75
2023-04-13T23:55:08.202Z,99421.66
2023-04-13T23:57:36.364Z,99416.53
